Sbi Tango — V7KC3 — position and weather

sailwx.info

Track history (hours):
 
Tides and Currents Weather Stations Pressure Air Temp Water Temp Dewpoint Dewpoint Depression Visibility Wind Speed Wind Dir Waves Ship Positions

Sbi Tango

Last reported at 2017-Oct-10 22:45 UTC. Time now 2017-Oct-19 16:50 UTC.
Position N 26°44' W 014°01'.
Warning: this ship's position is 8 days out of date.

Length 199 m; draft 12.5 m.

Type: Cargo ship. MMSI: 538006140.

Date/timePositionNaut miles runAvg speedWind from/ knotsBaromVisibWave heightAir tempDewpointWater temp
2017-Oct-10 22:45N 26°44' W 014°01'312.5
2017-Oct-10 22:30N 26°45' W 013°58'612.5
2017-Oct-10 22:00N 26°48' W 013°52'712.5
2017-Oct-10 21:29N 26°52' W 013°46'612.4
2017-Oct-10 21:00N 26°57' W 013°42'4 8.5
2017-Oct-10 20:30N 27°01' W 013°40'2 1.0
2017-Oct-10 18:49N 27°02' W 013°39'1 2.3
2017-Oct-10 18:30N 27°02' W 013°39'6 9.3
2017-Oct-10 17:53N 27°02' W 013°32'410.0
2017-Oct-10 17:30N 27°04' W 013°28'1 1.3
2017-Oct-10 17:00N 27°04' W 013°28'0 0.1
2017-Oct-10 16:26N 27°04' W 013°28'0 0.0
2017-Oct-10 15:56N 27°04' W 013°28'0 0.0
2017-Oct-10 15:26N 27°04' W 013°28'0 0.0
2017-Oct-10 15:00N 27°04' W 013°28'0 0.0
2017-Oct-10 13:27N 27°04' W 013°28'0 0.0
2017-Oct-10 12:59N 27°04' W 013°28'0 0.0
2017-Oct-10 12:29N 27°04' W 013°28'0 0.0
2017-Oct-10 11:45N 27°04' W 013°28'0 0.0
2017-Oct-10 11:26N 27°04' W 013°28'0 0.0
2017-Oct-10 10:51N 27°04' W 013°28'0 0.0
2017-Oct-10 02:53N 27°04' W 013°28'  
2017-Oct-06 17:29N 32°35' W 010°26'24711.2
2017-Oct-05 19:24N 35°44' W 007°15'8111.3
2017-Oct-05 12:12N 35°58' W 005°37'212.1
2017-Oct-05 12:00N 35°58' W 005°34'611.7
2017-Oct-05 11:30N 36°01' W 005°27'610.5
2017-Oct-05 10:59N 36°06' W 005°24'  
2017-Oct-01 16:30N 35°43' W 000°39'0 0.0
2017-Oct-01 15:36N 35°43' W 000°39'  
Track history (hours):
 
Tides and Currents Weather Stations Pressure Air Temp Water Temp Dewpoint Dewpoint Depression Visibility Wind Speed Wind Dir Waves Ship Positions

Sbi Tango

Last reported at 2017-Oct-10 22:45 UTC. Time now 2017-Oct-19 16:50 UTC.
Position N 26°44' W 014°01'.
Warning: this ship's position is 8 days out of date.

Length 199 m; draft 12.5 m.

Type: Cargo ship. MMSI: 538006140.

Date/timePositionNaut miles runAvg speedWind from/ knotsBaromVisibWave heightAir tempDewpointWater temp
2017-Oct-10 22:45N 26°44' W 014°01'312.5
2017-Oct-10 22:30N 26°45' W 013°58'612.5
2017-Oct-10 22:00N 26°48' W 013°52'712.5
2017-Oct-10 21:29N 26°52' W 013°46'612.4
2017-Oct-10 21:00N 26°57' W 013°42'4 8.5
2017-Oct-10 20:30N 27°01' W 013°40'2 1.0
2017-Oct-10 18:49N 27°02' W 013°39'1 2.3
2017-Oct-10 18:30N 27°02' W 013°39'6 9.3
2017-Oct-10 17:53N 27°02' W 013°32'410.0
2017-Oct-10 17:30N 27°04' W 013°28'1 1.3
2017-Oct-10 17:00N 27°04' W 013°28'0 0.1
2017-Oct-10 16:26N 27°04' W 013°28'0 0.0
2017-Oct-10 15:56N 27°04' W 013°28'0 0.0
2017-Oct-10 15:26N 27°04' W 013°28'0 0.0
2017-Oct-10 15:00N 27°04' W 013°28'0 0.0
2017-Oct-10 13:27N 27°04' W 013°28'0 0.0
2017-Oct-10 12:59N 27°04' W 013°28'0 0.0
2017-Oct-10 12:29N 27°04' W 013°28'0 0.0
2017-Oct-10 11:45N 27°04' W 013°28'0 0.0
2017-Oct-10 11:26N 27°04' W 013°28'0 0.0
2017-Oct-10 10:51N 27°04' W 013°28'0 0.0
2017-Oct-10 02:53N 27°04' W 013°28'  
2017-Oct-06 17:29N 32°35' W 010°26'24711.2
2017-Oct-05 19:24N 35°44' W 007°15'8111.3
2017-Oct-05 12:12N 35°58' W 005°37'212.1
2017-Oct-05 12:00N 35°58' W 005°34'611.7
2017-Oct-05 11:30N 36°01' W 005°27'610.5
2017-Oct-05 10:59N 36°06' W 005°24'  
2017-Oct-01 16:30N 35°43' W 000°39'0 0.0
2017-Oct-01 15:36N 35°43' W 000°39'  

Dump ship's entire track history